createdAt,value
2018-04-26T00:00:27.902Z,4.90
2018-04-26T00:02:59.259Z,6.18
2018-04-26T00:05:29.865Z,6.68
2018-04-26T00:08:02.075Z,5.95
2018-04-26T00:10:32.373Z,5.95
2018-04-26T00:13:03.056Z,6.65
2018-04-26T00:15:36.715Z,7.87
2018-04-26T00:18:05.638Z,7.15
2018-04-26T00:20:37.114Z,7.65
2018-04-26T00:23:05.628Z,6.40
2018-04-26T00:25:34.112Z,7.15
2018-04-26T01:35:13.340Z,9.18
2018-04-26T01:40:46.386Z,9.70
2018-04-26T01:43:14.961Z,9.50
2018-04-26T01:45:43.694Z,10.93
2018-04-26T01:48:12.311Z,11.70
2018-04-26T01:50:41.062Z,11.85
2018-04-26T01:53:09.582Z,10.55
2018-04-26T01:55:38.328Z,10.95
2018-04-26T01:58:31.938Z,12.95
2018-04-26T02:01:01.478Z,11.38
2018-04-26T02:03:30.161Z,11.88
2018-04-26T02:05:58.841Z,12.95
2018-04-26T02:08:30.519Z,11.82
2018-04-26T02:10:59.252Z,12.60
2018-04-26T02:13:28.845Z,13.62
2018-04-26T02:15:57.434Z,14.57
2018-04-26T02:18:27.169Z,15.25
2018-04-26T02:20:56.545Z,14.65
2018-04-26T02:23:25.199Z,16.30
2018-04-26T02:25:53.529Z,14.98
2018-04-26T02:28:23.393Z,15.13
2018-04-26T02:30:51.005Z,16.67
2018-04-26T02:33:20.456Z,17.40
2018-04-26T02:35:50.089Z,16.25
2018-04-26T02:38:18.603Z,17.02
2018-04-26T02:40:47.210Z,19.75
2018-04-26T02:43:15.776Z,19.90
2018-04-26T02:45:44.534Z,18.30
2018-04-26T02:48:13.088Z,18.92
2018-04-26T02:50:42.450Z,18.27
2018-04-26T02:53:10.969Z,17.17
2018-04-26T02:55:40.556Z,16.98
2018-04-26T02:58:10.116Z,17.83
2018-04-26T03:00:39.705Z,20.60
2018-04-26T03:03:07.355Z,18.55
2018-04-26T03:05:38.672Z,19.52
2018-04-26T03:08:07.251Z,20.08
2018-04-26T03:10:35.828Z,17.58
2018-04-26T03:13:04.444Z,19.33
2018-04-26T03:15:33.039Z,18.75
2018-04-26T03:18:00.718Z,18.48
2018-04-26T03:20:30.607Z,17.33
2018-04-26T03:22:59.247Z,17.70
2018-04-26T03:25:27.754Z,17.87
2018-04-26T03:27:57.331Z,17.58
2018-04-26T03:30:27.561Z,17.40
2018-04-26T03:32:57.061Z,16.27
2018-04-26T03:35:26.485Z,14.57
2018-04-26T03:50:07.799Z,15.68
2018-04-26T03:52:36.290Z,17.77
2018-04-26T16:33:40.042Z,3.47
2018-04-26T16:36:18.117Z,2.80
2018-04-26T16:38:53.748Z,3.73
2018-04-26T16:41:21.162Z,3.10
2018-04-26T16:43:48.575Z,3.60
2018-04-26T16:46:16.004Z,3.13
2018-04-26T16:48:43.614Z,3.00
2018-04-26T16:51:11.027Z,3.80
2018-04-26T16:53:38.662Z,2.80
2018-04-26T16:56:06.066Z,4.37
2018-04-26T16:58:33.519Z,3.20
2018-04-26T17:01:04.547Z,2.70
2018-04-26T17:03:31.984Z,3.90
2018-04-26T17:05:59.402Z,3.97
2018-04-26T17:08:26.826Z,3.13
2018-04-26T17:10:54.304Z,3.50
2018-04-26T17:13:22.694Z,4.30
2018-04-26T17:15:50.190Z,2.80
2018-04-26T17:18:17.646Z,3.97
2018-04-26T17:20:45.094Z,3.00
2018-04-26T17:23:13.409Z,3.40
2018-04-26T17:25:40.829Z,3.67
2018-04-26T17:28:09.252Z,3.67
2018-04-26T17:30:36.613Z,3.90
2018-04-26T17:33:04.018Z,3.67
2018-04-26T17:35:31.475Z,3.30
2018-04-26T17:37:58.893Z,3.83
2018-04-26T17:40:26.330Z,4.23
2018-04-26T17:42:53.854Z,3.50
2018-04-26T17:45:21.307Z,3.37
2018-04-26T17:47:48.722Z,3.87
2018-04-26T17:50:16.143Z,3.73
2018-04-26T17:52:43.571Z,4.17
2018-04-26T17:55:11.031Z,4.10
2018-04-26T17:57:42.055Z,4.00
2018-04-26T18:00:09.493Z,4.63
2018-04-26T18:02:36.902Z,3.90
2018-04-26T18:05:04.326Z,3.53
2018-04-26T18:07:31.793Z,4.60
2018-04-26T18:09:59.215Z,4.53
2018-04-26T18:12:27.526Z,4.20
2018-04-26T18:14:54.953Z,4.63
2018-04-26T18:17:22.382Z,5.20
2018-04-26T18:20:01.041Z,3.73
2018-04-26T18:22:21.606Z,7.13
2018-04-26T18:24:49.038Z,4.50
2018-04-26T18:27:16.457Z,4.50
2018-04-26T18:29:45.851Z,4.13
2018-04-26T18:32:13.389Z,5.63
2018-04-26T18:34:40.710Z,4.50
2018-04-26T18:37:08.238Z,4.00
2018-04-26T18:39:35.670Z,4.20
2018-04-26T18:42:03.157Z,4.70
2018-04-26T18:44:30.565Z,5.07
2018-04-26T18:46:58.887Z,5.30
2018-04-26T18:49:26.310Z,3.80
2018-04-26T18:51:53.718Z,4.73
2018-04-26T18:54:21.143Z,4.67
2018-04-26T18:56:49.485Z,4.33
2018-04-26T18:59:16.911Z,4.63
2018-04-26T19:01:44.338Z,5.10
2018-04-26T19:04:11.754Z,7.43
2018-04-26T19:06:39.165Z,5.07
2018-04-26T19:09:06.610Z,5.47
2018-04-26T19:11:34.067Z,5.00
2018-04-26T19:14:01.487Z,5.40
2018-04-26T19:16:28.897Z,5.70
2018-04-26T19:18:56.321Z,6.70
2018-04-26T19:21:23.790Z,4.07
2018-04-26T19:23:51.242Z,4.40
2018-04-26T19:26:18.659Z,5.60
2018-04-26T19:28:46.082Z,6.33
2018-04-26T19:31:13.502Z,5.43
2018-04-26T19:33:41.890Z,5.47
2018-04-26T19:36:09.325Z,5.90
2018-04-26T19:38:36.790Z,6.50
2018-04-26T19:41:04.158Z,6.43
2018-04-26T19:43:31.613Z,5.43
2018-04-26T19:45:59.039Z,6.82
2018-04-26T19:48:26.527Z,6.90
2018-04-26T19:50:53.933Z,6.00
2018-04-26T19:53:21.438Z,4.67
2018-04-26T19:55:48.858Z,6.83
2018-04-26T19:58:17.474Z,6.40
2018-04-26T20:00:44.937Z,7.07
2018-04-26T20:03:12.351Z,7.63
2018-04-26T20:05:39.770Z,5.47
2018-04-26T20:08:07.184Z,7.20
2018-04-26T20:10:34.605Z,5.57
2018-04-26T20:13:02.013Z,7.30
2018-04-26T20:15:29.438Z,7.13
2018-04-26T20:17:56.930Z,5.63
2018-04-26T20:20:24.394Z,7.47
2018-04-26T20:22:51.805Z,5.90
2018-04-26T20:25:19.226Z,8.13
2018-04-26T20:27:46.642Z,6.07
2018-04-26T20:30:14.046Z,5.37
2018-04-26T20:32:41.465Z,7.30
2018-04-26T20:35:08.884Z,6.30
2018-04-26T20:37:36.302Z,5.30
2018-04-26T20:40:03.709Z,5.93
2018-04-26T20:42:32.104Z,5.60
2018-04-26T20:44:59.510Z,5.77
2018-04-26T20:47:26.931Z,6.10
2018-04-26T20:49:54.345Z,5.73
2018-04-26T20:52:22.744Z,5.97
2018-04-26T20:54:50.150Z,5.97
2018-04-26T20:57:17.582Z,6.60
2018-04-26T20:59:45.029Z,6.05
2018-04-26T21:02:13.381Z,5.70
2018-04-26T21:04:40.795Z,6.77
2018-04-26T21:07:09.218Z,7.60
2018-04-26T21:09:36.702Z,8.45
2018-04-26T21:12:04.136Z,6.83
2018-04-26T21:14:31.538Z,5.77
2018-04-26T21:16:59.066Z,8.43
2018-04-26T21:19:26.479Z,7.70
2018-04-26T21:21:53.965Z,7.90
2018-04-26T21:24:22.371Z,8.07
2018-04-26T21:26:49.786Z,6.80
2018-04-26T21:29:18.171Z,7.03
2018-04-26T21:31:45.581Z,7.03
2018-04-26T21:34:13.002Z,5.83
2018-04-26T21:36:41.386Z,6.60
2018-04-26T21:39:08.798Z,6.80
2018-04-26T21:41:36.218Z,6.30
2018-04-26T21:44:03.644Z,6.43
2018-04-26T21:46:31.059Z,7.57
2018-04-26T21:48:58.476Z,6.30
2018-04-26T21:51:31.624Z,6.27
2018-04-26T21:54:04.602Z,7.17
2018-04-26T21:56:37.586Z,6.97
2018-04-26T21:59:10.486Z,6.90
2018-04-26T22:01:43.614Z,7.30
2018-04-26T22:04:16.979Z,6.67
2018-04-26T22:06:44.454Z,6.50
2018-04-26T22:09:12.798Z,6.23
2018-04-26T22:11:40.289Z,6.90
2018-04-26T22:14:07.750Z,6.60
2018-04-26T22:16:35.173Z,6.27
2018-04-26T22:19:02.668Z,6.57
2018-04-26T22:21:30.124Z,6.13
2018-04-26T22:23:57.534Z,5.63
2018-04-26T22:26:24.961Z,6.30
2018-04-26T22:28:52.365Z,6.40
2018-04-26T22:31:19.790Z,5.63
2018-04-26T22:33:47.302Z,7.43
2018-04-26T22:36:14.758Z,5.90
2018-04-26T22:38:43.133Z,6.10
2018-04-26T22:41:10.545Z,6.80
2018-04-26T22:43:38.250Z,6.40
2018-04-26T22:46:05.657Z,6.60
2018-04-26T22:48:33.161Z,6.07
2018-04-26T22:51:00.678Z,7.10
2018-04-26T22:53:28.086Z,6.50
2018-04-26T22:55:55.538Z,6.30
2018-04-26T22:58:23.194Z,5.47
2018-04-26T23:00:50.659Z,6.40
2018-04-26T23:03:18.114Z,6.50
2018-04-26T23:05:45.660Z,5.67
2018-04-26T23:08:13.129Z,6.33
2018-04-26T23:10:40.581Z,6.53
2018-04-26T23:13:08.241Z,6.60
2018-04-26T23:15:35.665Z,6.27
2018-04-26T23:18:03.070Z,6.77
2018-04-26T23:20:31.535Z,7.30
2018-04-26T23:22:58.941Z,8.13
2018-04-26T23:25:26.424Z,7.30
2018-04-26T23:27:55.029Z,7.43
2018-04-26T23:30:23.377Z,7.57
2018-04-26T23:32:50.791Z,9.27
2018-04-26T23:35:18.220Z,7.47
2018-04-26T23:37:45.629Z,8.57
2018-04-26T23:40:13.134Z,7.40
2018-04-26T23:42:40.643Z,8.40
2018-04-26T23:45:08.050Z,7.20
2018-04-26T23:47:35.481Z,6.80
2018-04-26T23:50:03.849Z,7.45
2018-04-26T23:52:31.347Z,6.17
2018-04-26T23:54:58.793Z,7.95
2018-04-26T23:57:26.254Z,6.60
2018-04-26T23:59:54.597Z,7.33
